Time;durP1;ratioP1;P1;durP2;ratioP2;P2;SDS_P1;SDS_P2;PMS_P1;PMS_P2;Temp;Humidity;BMP_temperature;BMP_pressure;BME280_temperature;BME280_humidity;BME280_pressure;Samples;Min_cycle;Max_cycle;Signal;HPM_P1;HPM_P2
2023/04/02 00:01:38;;;;;;;8.40;1.60;;;9.30;35.30;;;;;;5026237;28;20460;-76
2023/04/02 00:04:13;;;;;;;1.90;1.60;;;9.40;32.90;;;;;;5030608;28;20256;-77
2023/04/02 00:06:43;;;;;;;1.83;1.40;;;9.40;34.60;;;;;;5028767;28;20571;-77
2023/04/02 00:09:12;;;;;;;2.50;1.50;;;9.40;38.20;;;;;;5014690;28;20444;-76
2023/04/02 00:11:41;;;;;;;2.47;1.50;;;9.30;38.10;;;;;;5028946;28;20480;-76
2023/04/02 00:14:16;;;;;;;3.07;1.70;;;9.40;38.40;;;;;;5015672;28;21153;-76
2023/04/02 00:16:43;;;;;;;3.00;1.67;;;9.30;38.40;;;;;;5023031;28;20846;-76
2023/04/02 00:19:17;;;;;;;2.80;1.80;;;9.30;38.20;;;;;;5019155;28;20464;-76
2023/04/02 00:21:45;;;;;;;2.73;2.03;;;9.30;36.10;;;;;;5032926;28;20834;-76
2023/04/02 00:24:16;;;;;;;2.70;1.90;;;9.30;38.50;;;;;;5036924;28;20454;-77
2023/04/02 00:26:49;;;;;;;3.80;1.90;;;9.40;38.40;;;;;;5016681;28;20457;-76
2023/04/02 00:29:16;;;;;;;5.47;1.90;;;9.40;38.40;;;;;;5022679;28;20991;-76
2023/04/02 00:31:47;;;;;;;3.63;1.63;;;9.40;38.40;;;;;;5023875;28;21149;-76
2023/04/02 00:34:31;;;;;;;8.17;2.10;;;9.40;38.50;;;;;;5017371;28;20935;-77
2023/04/02 00:36:57;;;;;;;2.90;1.90;;;9.40;36.20;;;;;;5033509;28;20962;-76
2023/04/02 00:39:26;;;;;;;3.07;2.00;;;9.30;38.50;;;;;;5019461;28;20461;-76
2023/04/02 00:42:17;;;;;;;4.87;2.10;;;9.30;38.40;;;;;;5033351;28;20815;-76
2023/04/02 00:44:42;;;;;;;4.80;1.90;;;9.30;38.30;;;;;;5020602;28;20541;-77
2023/04/02 00:47:19;;;;;;;3.20;1.97;;;9.40;38.40;;;;;;5025817;28;20998;-76
2023/04/02 00:49:45;;;;;;;4.30;2.07;;;9.40;36.20;;;;;;5026306;28;20488;-76
2023/04/02 00:52:19;;;;;;;2.20;1.80;;;9.30;38.40;;;;;;5010586;28;21722;-76
2023/04/02 00:54:49;;;;;;;4.50;2.00;;;9.30;38.30;;;;;;5027971;28;20425;-76
2023/04/02 00:57:19;;;;;;;2.87;1.80;;;9.30;38.30;;;;;;5030560;28;20439;-76
2023/04/02 00:59:57;;;;;;;4.77;1.90;;;9.30;36.30;;;;;;5022115;28;20885;-76
2023/04/02 01:02:31;;;;;;;3.00;1.90;;;9.20;38.40;;;;;;5024408;28;20760;-77
2023/04/02 01:05:06;;;;;;;3.00;1.97;;;9.20;38.20;;;;;;5028952;28;21207;-77
2023/04/02 01:07:56;;;;;;;6.13;1.90;;;9.20;38.10;;;;;;5022805;28;20438;-76
2023/04/02 01:10:31;;;;;;;2.20;1.70;;;9.20;38.20;;;;;;5035723;28;20448;-77
2023/04/02 01:13:07;;;;;;;2.10;1.87;;;9.20;38.40;;;;;;5022864;28;20434;-76
2023/04/02 01:15:49;;;;;;;3.83;1.80;;;9.40;38.60;;;;;;5025884;28;20931;-76
2023/04/02 01:18:25;;;;;;;2.80;1.93;;;9.20;38.20;;;;;;5013253;28;20472;-76
2023/04/02 01:23:37;;;;;;;4.47;2.00;;;9.20;36.10;;;;;;5082399;22;20492;-74
2023/04/02 01:26:25;;;;;;;11.80;3.47;;;9.20;36.00;;;;;;5105458;22;20472;-72
2023/04/02 01:29:00;;;;;;;2.43;1.90;;;9.20;38.20;;;;;;5010121;28;20484;-73
2023/04/02 01:31:28;;;;;;;5.03;2.30;;;9.20;36.50;;;;;;5023857;23;20488;-73
2023/04/02 01:33:54;;;;;;;7.57;1.97;;;9.20;41.50;;;;;;4995040;28;20418;-73
2023/04/02 01:36:32;;;;;;;2.97;1.77;;;9.20;36.00;;;;;;5025352;22;20508;-73
2023/04/02 01:39:17;;;;;;;2.43;1.90;;;9.20;36.10;;;;;;5005344;28;20190;-73
2023/04/02 01:41:55;;;;;;;3.20;2.50;;;9.30;41.10;;;;;;5004686;28;20496;-73
2023/04/02 01:44:31;;;;;;;5.60;2.00;;;9.20;38.50;;;;;;5008518;28;20797;-73
2023/04/02 01:47:02;;;;;;;5.23;1.80;;;9.30;42.30;;;;;;5009943;28;20476;-73
2023/04/02 01:49:28;;;;;;;2.07;1.80;;;9.30;38.30;;;;;;5005245;28;20442;-73
2023/04/02 01:51:57;;;;;;;2.40;2.10;;;9.30;36.70;;;;;;5007164;28;20572;-74
2023/04/02 01:54:24;;;;;;;3.53;1.93;;;9.30;41.90;;;;;;5009580;28;20185;-73
2023/04/02 01:56:50;;;;;;;2.90;2.27;;;9.30;36.20;;;;;;5042518;22;20576;-74
2023/04/02 01:59:21;;;;;;;4.53;2.07;;;9.30;36.20;;;;;;5081592;23;21082;-73
2023/04/02 02:02:10;;;;;;;5.50;2.20;;;9.30;36.20;;;;;;5022403;28;20436;-74
2023/04/02 02:04:36;;;;;;;6.20;2.00;;;9.30;38.40;;;;;;5000957;28;20468;-74
2023/04/02 02:07:03;;;;;;;2.23;1.87;;;9.30;38.40;;;;;;5008416;28;20525;-74
2023/04/02 02:09:33;;;;;;;2.30;1.67;;;9.30;38.70;;;;;;5008064;28;20213;-75
2023/04/02 02:12:01;;;;;;;4.03;2.07;;;9.30;36.40;;;;;;5003941;28;20963;-74
2023/04/02 02:14:28;;;;;;;5.03;2.30;;;9.30;39.50;;;;;;5022242;22;20492;-75
2023/04/02 02:16:58;;;;;;;2.47;1.77;;;9.20;40.80;;;;;;5028066;28;20583;-75
2023/04/02 02:19:48;;;;;;;5.70;2.40;;;9.20;39.30;;;;;;5010679;28;20440;-74
2023/04/02 02:22:16;;;;;;;2.23;1.90;;;9.30;44.20;;;;;;5018826;28;20471;-74
2023/04/02 02:24:42;;;;;;;2.70;1.90;;;9.30;45.70;;;;;;5001737;28;20982;-74
2023/04/02 02:29:44;;;;;;;2.63;2.30;;;9.20;46.10;;;;;;5039503;22;20897;-73
2023/04/02 02:32:12;;;;;;;2.80;2.13;;;9.20;43.90;;;;;;5016464;28;20469;-73
2023/04/02 02:34:44;;;;;;;2.47;2.10;;;9.20;46.90;;;;;;5002481;28;20453;-73
2023/04/02 02:37:21;;;;;;;4.93;2.50;;;9.20;45.40;;;;;;5008234;28;20516;-73
2023/04/02 02:39:52;;;;;;;5.67;2.30;;;9.20;49.30;;;;;;5004454;28;20433;-73
2023/04/02 02:42:35;;;;;;;6.30;2.10;;;9.20;50.50;;;;;;5064854;22;20496;-76
2023/04/02 02:45:04;;;;;;;2.53;2.00;;;9.20;49.70;;;;;;4989997;28;20473;-76
2023/04/02 02:47:34;;;;;;;4.63;2.07;;;10.50;54.60;;;;;;5025390;28;20498;-76
2023/04/02 02:50:05;;;;;;;3.50;2.33;;;9.20;54.00;;;;;;5008811;28;20854;-76
2023/04/02 02:52:34;;;;;;;2.53;2.33;;;9.20;55.90;;;;;;5017668;28;20536;-76
2023/04/02 02:55:03;;;;;;;3.13;2.30;;;9.20;55.50;;;;;;4974065;28;20505;-76
2023/04/02 02:57:35;;;;;;;2.37;2.10;;;9.20;53.60;;;;;;4992176;28;20438;-77
2023/04/02 03:00:05;;;;;;;2.97;2.40;;;9.20;58.10;;;;;;4998154;28;20945;-77
2023/04/02 03:02:36;;;;;;;3.60;2.30;;;9.20;54.00;;;;;;4974679;28;20922;-77
2023/04/02 03:05:03;;;;;;;5.00;2.30;;;9.10;54.40;;;;;;4974194;28;20972;-77
2023/04/02 03:07:30;;;;;;;4.00;2.30;;;9.10;56.30;;;;;;4981733;28;20920;-77
2023/04/02 03:10:30;;;;;;;8.83;2.70;;;9.10;58.80;;;;;;4974576;28;20445;-77
2023/04/02 03:13:15;;;;;;;7.00;2.60;;;9.10;54.70;;;;;;4994767;28;20457;-76
2023/04/02 03:16:00;;;;;;;2.80;2.50;;;9.10;55.10;;;;;;4992847;28;20429;-76
2023/04/02 03:18:39;;;;;;;2.40;2.20;;;9.20;59.60;;;;;;4974226;28;20508;-76
2023/04/02 03:21:10;;;;;;;5.70;2.20;;;9.20;60.30;;;;;;4994145;28;20433;-76
2023/04/02 03:23:40;;;;;;;6.03;2.20;;;9.10;52.70;;;;;;4974533;28;20458;-76
2023/04/02 03:26:16;;;;;;;3.33;2.47;;;9.10;60.90;;;;;;4974998;28;20468;-76
2023/04/02 03:28:46;;;;;;;5.67;2.20;;;9.20;63.10;;;;;;4992142;28;20667;-76
2023/04/02 03:31:24;;;;;;;3.83;2.13;;;9.20;59.20;;;;;;4978843;28;20741;-76
2023/04/02 03:34:07;;;;;;;3.73;2.30;;;9.30;57.60;;;;;;4990538;28;20465;-76
2023/04/02 03:36:55;;;;;;;5.90;2.30;;;9.20;64.60;;;;;;4992209;28;20681;-76
2023/04/02 03:39:36;;;;;;;2.57;2.13;;;9.20;56.40;;;;;;4995856;28;20524;-76
2023/04/02 03:42:25;;;;;;;2.83;2.30;;;9.20;61.30;;;;;;4991568;28;20461;-77
2023/04/02 03:44:59;;;;;;;5.27;2.10;;;9.20;60.20;;;;;;4988185;28;20813;-76
2023/04/02 03:47:37;;;;;;;4.90;2.30;;;9.20;63.40;;;;;;4981798;28;20474;-76
2023/04/02 03:50:10;;;;;;;3.13;2.37;;;9.20;58.60;;;;;;4996736;28;20948;-77
2023/04/02 03:52:37;;;;;;;4.87;2.10;;;9.20;56.00;;;;;;4973021;28;20547;-77
2023/04/02 03:55:14;;;;;;;5.63;2.20;;;9.20;59.70;;;;;;4992073;28;20434;-76
2023/04/02 03:57:51;;;;;;;2.57;2.10;;;9.20;62.20;;;;;;4975492;28;20442;-76
2023/04/02 04:00:25;;;;;;;3.70;2.23;;;9.20;59.10;;;;;;4997674;28;20445;-76
2023/04/02 04:03:01;;;;;;;7.70;3.50;;;9.20;60.10;;;;;;4975510;28;21007;-77
2023/04/02 04:05:37;;;;;;;7.17;5.27;;;9.20;65.10;;;;;;4996377;28;20502;-76
2023/04/02 04:08:15;;;;;;;9.77;6.50;;;9.20;63.40;;;;;;4975524;28;21300;-77
2023/04/02 04:10:42;;;;;;;10.63;4.70;;;9.20;67.20;;;;;;4991166;28;20797;-76
2023/04/02 04:13:15;;;;;;;7.30;4.43;;;9.30;66.00;;;;;;4975163;28;20492;-77
2023/04/02 04:16:01;;;;;;;5.70;3.20;;;9.30;69.80;;;;;;5007220;28;20426;-76
2023/04/02 04:18:42;;;;;;;4.47;2.67;;;9.30;67.40;;;;;;4974682;28;20441;-77
2023/04/02 04:21:30;;;;;;;3.00;2.70;;;9.30;64.60;;;;;;4992012;28;20425;-77
2023/04/02 04:24:02;;;;;;;4.60;2.50;;;9.30;60.90;;;;;;4990761;28;20489;-77
2023/04/02 04:26:34;;;;;;;5.90;2.40;;;9.30;68.70;;;;;;4973574;28;20473;-77
2023/04/02 04:29:23;;;;;;;5.73;2.40;;;9.30;70.60;;;;;;4996073;28;20780;-76
2023/04/02 04:31:54;;;;;;;8.43;2.90;;;9.30;62.30;;;;;;4990869;28;20437;-77
2023/04/02 04:34:28;;;;;;;2.83;2.50;;;9.30;64.90;;;;;;4990907;28;21116;-77
2023/04/02 04:37:00;;;;;;;3.93;2.17;;;11.10;65.50;;;;;;4991426;28;20433;-77
2023/04/02 04:39:41;;;;;;;3.10;2.37;;;9.30;67.30;;;;;;4972873;28;20442;-76
2023/04/02 04:42:16;;;;;;;4.40;2.30;;;9.30;65.20;;;;;;4998546;28;20474;-77
2023/04/02 04:44:56;;;;;;;2.50;2.30;;;9.30;63.40;;;;;;5004648;28;20446;-77
2023/04/02 04:47:29;;;;;;;2.53;2.30;;;9.30;65.20;;;;;;5002707;28;20523;-77
2023/04/02 04:50:30;;;;;;;3.77;2.80;;;9.30;72.00;;;;;;4991065;28;20562;-77
2023/04/02 04:52:56;;;;;;;2.37;2.17;;;9.30;63.90;;;;;;4990973;28;20608;-76
2023/04/02 04:55:29;;;;;;;4.17;2.40;;;9.20;60.00;;;;;;4970901;28;20521;-76
2023/04/02 04:58:02;;;;;;;3.90;2.10;;;9.30;63.30;;;;;;4978955;28;20214;-77
2023/04/02 05:00:34;;;;;;;4.40;2.53;;;9.20;60.50;;;;;;4978375;28;20439;-76
2023/04/02 05:03:09;;;;;;;2.70;2.27;;;9.30;59.60;;;;;;4998342;28;20465;-78
2023/04/02 05:05:39;;;;;;;3.77;2.43;;;9.30;63.00;;;;;;4986004;28;20464;-77
2023/04/02 05:08:21;;;;;;;3.03;2.10;;;9.30;65.80;;;;;;4986880;28;20419;-76
2023/04/02 05:11:10;;;;;;;2.53;2.20;;;9.30;65.90;;;;;;4996789;28;20509;-76
2023/04/02 05:14:23;;;;;;;4.60;1.97;;;9.30;65.00;;;;;;5004491;28;20928;-76
2023/04/02 05:16:57;;;;;;;3.93;2.37;;;9.30;63.80;;;;;;4975731;28;20568;-76
2023/04/02 05:19:47;;;;;;;2.10;1.97;;;9.30;62.20;;;;;;4999269;28;20430;-76
2023/04/02 05:22:34;;;;;;;2.10;1.90;;;9.40;62.00;;;;;;5010015;28;20445;-77
2023/04/02 05:25:18;;;;;;;4.30;2.30;;;9.30;57.70;;;;;;4990413;28;21069;-77
2023/04/02 05:28:14;;;;;;;3.13;1.83;;;9.30;56.40;;;;;;4994068;28;20454;-77
2023/04/02 05:31:00;;;;;;;3.97;2.47;;;9.40;54.60;;;;;;4986943;28;20797;-77
2023/04/02 05:33:28;;;;;;;3.43;2.50;;;9.40;53.80;;;;;;4999040;28;20456;-77
2023/04/02 05:36:11;;;;;;;5.13;2.77;;;9.40;57.40;;;;;;4999485;28;20951;-77
2023/04/02 05:38:42;;;;;;;5.93;2.37;;;9.40;54.40;;;;;;5000132;28;20437;-77
2023/04/02 05:41:16;;;;;;;3.67;2.10;;;9.50;54.40;;;;;;4974001;28;20446;-77
2023/04/02 05:43:46;;;;;;;4.53;2.60;;;9.50;52.00;;;;;;4973361;28;21176;-77
2023/04/02 05:46:21;;;;;;;2.97;2.13;;;9.50;49.20;;;;;;4992754;28;20469;-77
2023/04/02 05:48:53;;;;;;;2.80;2.00;;;9.50;49.00;;;;;;4991351;28;20433;-77
2023/04/02 05:51:26;;;;;;;2.40;2.20;;;9.60;47.90;;;;;;4993801;28;20434;-77
2023/04/02 05:53:55;;;;;;;3.00;1.97;;;9.60;38.30;;;;;;4981262;28;20557;-76
2023/04/02 05:56:33;;;;;;;6.43;2.27;;;9.60;46.00;;;;;;4997754;28;20439;-77
2023/04/02 05:59:15;;;;;;;7.10;2.50;;;9.70;42.40;;;;;;4989867;28;20489;-77
2023/04/02 06:01:50;;;;;;;7.00;3.30;;;9.80;41.10;;;;;;4993285;28;20438;-77
2023/04/02 06:04:25;;;;;;;6.30;3.07;;;9.80;45.30;;;;;;4972293;28;21449;-77
2023/04/02 06:07:08;;;;;;;3.77;2.00;;;9.90;41.20;;;;;;4996224;28;20469;-77
2023/04/02 06:09:36;;;;;;;2.10;1.90;;;9.90;39.00;;;;;;4988048;28;20441;-77
2023/04/02 06:12:23;;;;;;;2.17;1.70;;;9.90;36.70;;;;;;4979354;28;20454;-77
2023/04/02 06:14:49;;;;;;;5.00;1.93;;;9.90;38.80;;;;;;4971458;28;20438;-77
2023/04/02 06:17:17;;;;;;;2.30;2.10;;;9.90;38.80;;;;;;4994048;28;20437;-77
2023/04/02 06:19:43;;;;;;;4.10;2.30;;;10.00;38.00;;;;;;4991002;28;20561;-77
2023/04/02 06:22:14;;;;;;;3.10;2.20;;;9.90;38.70;;;;;;4998019;28;20500;-77
2023/04/02 06:24:40;;;;;;;2.23;2.03;;;9.90;38.70;;;;;;4993162;28;20443;-77
2023/04/02 06:27:08;;;;;;;6.23;2.40;;;10.00;38.00;;;;;;4993500;28;20465;-75
2023/04/02 06:29:38;;;;;;;3.33;2.20;;;10.00;37.90;;;;;;4983143;28;20964;-77
2023/04/02 06:32:07;;;;;;;2.50;2.30;;;10.10;38.00;;;;;;4995765;28;20457;-77
2023/04/02 06:34:35;;;;;;;3.57;2.23;;;10.10;34.30;;;;;;4978079;28;20533;-76
2023/04/02 06:37:09;;;;;;;4.80;2.40;;;11.10;38.70;;;;;;4994532;28;20445;-77
2023/04/02 06:39:35;;;;;;;3.50;2.80;;;10.10;38.00;;;;;;4973756;28;20492;-76
2023/04/02 06:42:11;;;;;;;3.43;2.63;;;10.30;36.00;;;;;;5000551;28;20457;-77
2023/04/02 06:44:37;;;;;;;4.27;3.03;;;10.20;30.00;;;;;;4986904;28;20200;-77
2023/04/02 06:47:27;;;;;;;4.83;2.70;;;10.20;37.90;;;;;;5015126;28;20473;-77
2023/04/02 06:50:15;;;;;;;10.43;3.10;;;10.30;32.10;;;;;;4969333;28;20442;-77
2023/04/02 06:52:53;;;;;;;7.17;3.03;;;10.30;33.30;;;;;;4995539;28;20750;-77
2023/04/02 06:55:19;;;;;;;6.10;2.93;;;10.30;38.20;;;;;;4975220;28;20449;-76
2023/04/02 06:57:45;;;;;;;6.53;3.17;;;10.20;38.00;;;;;;4992850;28;20434;-76
2023/04/02 07:00:42;;;;;;;4.37;2.90;;;10.20;38.20;;;;;;4994574;28;20182;-75
2023/04/02 07:03:20;;;;;;;4.43;2.80;;;10.30;36.00;;;;;;4978362;28;20899;-77
2023/04/02 07:05:46;;;;;;;9.20;3.40;;;10.30;38.20;;;;;;4995078;28;20875;-77
2023/04/02 07:08:12;;;;;;;3.00;2.70;;;10.40;38.50;;;;;;4999164;28;20469;-77
2023/04/02 07:10:37;;;;;;;4.70;2.57;;;10.40;38.20;;;;;;4990206;28;20207;-76
2023/04/02 07:13:04;;;;;;;5.30;2.60;;;10.40;38.20;;;;;;4996118;28;20677;-77
2023/04/02 07:15:30;;;;;;;10.60;3.10;;;10.40;38.20;;;;;;5001436;28;20210;-77
2023/04/02 07:17:57;;;;;;;6.40;3.43;;;10.40;38.40;;;;;;4992814;28;20868;-77
2023/04/02 07:20:32;;;;;;;5.20;2.60;;;10.30;38.30;;;;;;4973741;28;20195;-77
2023/04/02 07:22:57;;;;;;;3.57;3.27;;;10.30;36.10;;;;;;4992704;28;20484;-77
2023/04/02 07:25:25;;;;;;;6.10;3.20;;;10.10;38.30;;;;;;4990952;28;20925;-76
2023/04/02 07:27:51;;;;;;;6.63;3.27;;;10.50;38.40;;;;;;4996118;28;20715;-77
2023/04/02 07:30:18;;;;;;;3.90;2.77;;;10.50;38.40;;;;;;4985890;28;20509;-77
2023/04/02 07:32:44;;;;;;;5.37;2.90;;;10.40;38.20;;;;;;4976859;28;20783;-77
2023/04/02 07:35:10;;;;;;;4.60;3.00;;;10.50;38.40;;;;;;4995326;28;20438;-77
2023/04/02 07:37:37;;;;;;;3.67;3.00;;;10.60;38.50;;;;;;4981427;28;20836;-76
2023/04/02 07:40:05;;;;;;;5.15;3.22;;;10.50;34.40;;;;;;4994824;28;20772;-78
2023/04/02 07:42:30;;;;;;;3.50;3.20;;;10.70;36.30;;;;;;4975295;28;20597;-76
2023/04/02 07:44:56;;;;;;;4.63;3.30;;;10.80;38.60;;;;;;4985902;28;20525;-78
2023/04/02 07:47:21;;;;;;;5.20;3.47;;;10.80;35.40;;;;;;5004995;28;20195;-78
2023/04/02 07:49:47;;;;;;;6.87;3.40;;;10.70;38.40;;;;;;4993842;28;20187;-78
2023/04/02 07:52:12;;;;;;;3.83;2.83;;;10.80;36.40;;;;;;4993105;28;20208;-77
2023/04/02 07:54:38;;;;;;;6.87;3.37;;;10.80;38.60;;;;;;4974437;28;20217;-77
2023/04/02 07:57:04;;;;;;;8.77;3.53;;;10.80;38.40;;;;;;4974781;28;20654;-78
2023/04/02 07:59:30;;;;;;;10.93;5.60;;;10.70;38.40;;;;;;4991989;28;20317;-77
2023/04/02 08:01:56;;;;;;;7.63;5.63;;;10.50;36.10;;;;;;4974990;28;20549;-78
2023/04/02 08:04:22;;;;;;;13.37;5.10;;;10.50;38.20;;;;;;4976115;28;20206;-77
2023/04/02 08:06:49;;;;;;;4.57;3.80;;;10.50;38.40;;;;;;4991630;28;20707;-77
2023/04/02 08:09:15;;;;;;;6.30;4.13;;;10.50;38.50;;;;;;4974416;28;20215;-77
2023/04/02 08:11:41;;;;;;;5.20;3.83;;;10.60;36.50;;;;;;4991602;28;20434;-78
2023/04/02 08:14:08;;;;;;;5.60;3.60;;;10.60;38.60;;;;;;4991238;28;20445;-78
2023/04/02 08:16:52;;;;;;;8.97;5.50;;;10.60;38.60;;;;;;5003075;28;20198;-77
2023/04/02 08:19:18;;;;;;;4.00;3.60;;;10.70;38.50;;;;;;4991448;28;20457;-77
2023/04/02 08:21:43;;;;;;;6.37;4.90;;;10.70;36.40;;;;;;4974106;28;20940;-78
2023/04/02 08:24:10;;;;;;;5.67;5.07;;;10.70;38.60;;;;;;4995789;28;20282;-78
2023/04/02 08:26:36;;;;;;;6.10;5.13;;;10.70;38.60;;;;;;4999722;28;20210;-77
2023/04/02 08:29:02;;;;;;;4.60;3.23;;;10.80;38.60;;;;;;4973992;28;20552;-78
2023/04/02 08:31:29;;;;;;;4.97;3.90;;;10.90;38.70;;;;;;4974875;28;20438;-78
2023/04/02 08:33:55;;;;;;;8.90;8.00;;;11.00;39.10;;;;;;4973526;28;20461;-78
2023/04/02 08:36:32;;;;;;;6.60;4.63;;;11.10;38.90;;;;;;4974020;28;20484;-78
2023/04/02 08:38:57;;;;;;;3.83;3.50;;;11.10;38.90;;;;;;4976067;28;20445;-78
2023/04/02 08:41:26;;;;;;;4.80;3.83;;;11.10;38.80;;;;;;4991739;28;20529;-77
2023/04/02 08:44:21;;;;;;;3.70;3.00;;;11.20;36.80;;;;;;5061223;23;20245;-74
2023/04/02 08:47:02;;;;;;;3.40;2.93;;;11.30;39.10;;;;;;5010269;28;20468;-74
2023/04/02 08:49:36;;;;;;;7.50;5.13;;;11.40;39.00;;;;;;5011465;28;20428;-74
2023/04/02 08:52:01;;;;;;;7.93;2.80;;;11.50;39.20;;;;;;5004429;28;20528;-74
2023/04/02 08:54:33;;;;;;;8.60;2.80;;;11.50;27.80;;;;;;5002325;28;21019;-74
2023/04/02 09:05:06;;;;;;;4.37;2.70;;;11.60;27.10;;;;;;5728009;22;20878;-74
2023/04/02 09:07:32;;;;;;;3.13;2.83;;;11.60;25.20;;;;;;5030133;28;20428;-74
2023/04/02 09:09:58;;;;;;;3.13;2.83;;;11.60;31.20;;;;;;5031433;28;20428;-73
2023/04/02 09:31:08;;;;;;;7.20;2.50;;;11.80;18.00;;;;;;5899746;22;20491;-76
2023/04/02 09:33:47;;;;;;;2.70;2.50;;;12.00;21.50;;;;;;5029996;28;20468;-75
2023/04/02 09:36:29;;;;;;;3.07;2.67;;;12.10;16.10;;;;;;5004191;28;20433;-75
2023/04/02 09:39:05;;;;;;;4.47;2.50;;;12.20;17.30;;;;;;5009586;28;20856;-75
2023/04/02 09:52:19;;;;;;;3.37;2.70;;;12.90;9.00;;;;;;5295783;22;20500;-74
2023/04/02 09:54:45;;;;;;;3.03;2.53;;;13.00;7.50;;;;;;5013162;28;20442;-73
2023/04/02 09:57:23;;;;;;;2.77;2.57;;;13.00;7.00;;;;;;5009229;28;20475;-74
2023/04/02 10:00:15;;;;;;;3.10;2.80;;;13.20;1.00;;;;;;5010224;28;20436;-73
2023/04/02 10:02:42;;;;;;;3.60;3.10;;;13.60;1.00;;;;;;5010500;28;20421;-74
2023/04/02 10:05:22;;;;;;;3.10;2.90;;;13.70;1.00;;;;;;5068938;22;20495;-78
2023/04/02 10:07:52;;;;;;;2.80;2.60;;;13.90;1.00;;;;;;5008307;28;20939;-77
2023/04/02 10:10:20;;;;;;;3.00;2.47;;;13.90;1.00;;;;;;5010331;28;20444;-77
2023/04/02 10:12:50;;;;;;;4.00;3.00;;;14.00;1.00;;;;;;5007594;28;20433;-77
2023/04/02 10:15:23;;;;;;;5.40;3.37;;;14.10;1.00;;;;;;5009657;28;20441;-77
2023/04/02 10:17:58;;;;;;;4.47;3.20;;;14.20;1.00;;;;;;5009106;28;20441;-77
2023/04/02 10:20:26;;;;;;;3.80;3.50;;;14.30;1.00;;;;;;5008117;28;20519;-77
2023/04/02 10:22:52;;;;;;;3.97;3.50;;;14.40;1.00;;;;;;5009214;28;20441;-77
2023/04/02 10:25:23;;;;;;;4.60;3.57;;;14.60;1.00;;;;;;5008157;28;20473;-77
2023/04/02 10:27:58;;;;;;;3.63;3.27;;;14.80;1.00;;;;;;5008084;28;20179;-78
2023/04/02 10:30:28;;;;;;;3.40;3.10;;;15.00;1.00;;;;;;5009398;28;20425;-78
2023/04/02 10:33:14;;;;;;;2.90;2.70;;;15.40;1.00;;;;;;5008741;28;20425;-77
2023/04/02 10:35:57;;;;;;;2.57;2.20;;;15.80;1.00;;;;;;5009273;28;20491;-75
2023/04/02 10:38:41;;;;;;;3.10;2.37;;;16.80;1.00;;;;;;5008202;28;20536;-77
2023/04/02 10:41:20;;;;;;;4.83;3.70;;;18.20;1.00;;;;;;5001446;28;20570;-78
2023/04/02 10:44:05;;;;;;;6.13;3.30;;;19.50;1.00;;;;;;5007422;28;20457;-79
2023/04/02 10:46:45;;;;;;;4.63;3.60;;;20.30;1.00;;;;;;5009650;28;20461;-78
2023/04/02 10:49:31;;;;;;;4.53;3.23;;;21.20;1.00;;;;;;5002319;28;20445;-78
2023/04/02 10:52:08;;;;;;;3.97;3.20;;;21.30;1.00;;;;;;4997588;28;20465;-78
2023/04/02 10:54:41;;;;;;;3.50;2.93;;;22.10;1.00;;;;;;5008018;28;20532;-79
2023/04/02 10:57:17;;;;;;;3.63;3.07;;;22.50;1.00;;;;;;5002126;28;20803;-78
2023/04/02 10:59:47;;;;;;;4.40;3.20;;;22.20;1.00;;;;;;5009241;28;20457;-78
2023/04/02 11:02:28;;;;;;;4.53;3.20;;;21.60;1.00;;;;;;5009518;28;20429;-78
2023/04/02 11:04:56;;;;;;;5.10;3.20;;;20.60;1.00;;;;;;5007926;28;20519;-78
2023/04/02 11:07:25;;;;;;;3.80;3.23;;;19.30;1.00;;;;;;5009400;28;20457;-79
2023/04/02 11:09:55;;;;;;;4.33;3.10;;;18.60;1.00;;;;;;5009146;28;20512;-77
2023/04/02 11:12:41;;;;;;;3.60;2.90;;;17.60;1.00;;;;;;5012535;28;20437;-78
2023/04/02 11:15:16;;;;;;;3.10;2.70;;;17.00;1.00;;;;;;5004653;28;20434;-77
2023/04/02 11:17:43;;;;;;;3.83;2.10;;;16.90;1.00;;;;;;5012314;28;20424;-77
2023/04/02 11:20:46;;;;;;;2.53;2.13;;;16.70;1.00;;;;;;5010965;28;20425;-77
2023/04/02 11:23:16;;;;;;;3.03;2.40;;;16.40;1.00;;;;;;5005177;28;20492;-77
2023/04/02 11:25:42;;;;;;;2.30;2.00;;;16.40;1.00;;;;;;5010961;28;20535;-78
2023/04/02 11:28:28;;;;;;;2.70;2.30;;;16.40;1.00;;;;;;5011105;28;20429;-79
2023/04/02 11:30:54;;;;;;;3.00;2.70;;;16.20;1.00;;;;;;5011717;28;20517;-78
2023/04/02 11:33:34;;;;;;;3.17;2.73;;;15.90;1.00;;;;;;5012432;28;20513;-78
2023/04/02 11:36:00;;;;;;;3.03;2.73;;;15.90;1.00;;;;;;5011984;28;20413;-77
2023/04/02 11:38:26;;;;;;;4.43;2.50;;;15.70;1.00;;;;;;5010994;28;20429;-79
2023/04/02 11:40:53;;;;;;;3.43;3.13;;;15.40;1.00;;;;;;5011793;28;20428;-78
2023/04/02 11:43:35;;;;;;;3.43;3.13;;;14.80;1.00;;;;;;5011803;28;20189;-78
2023/04/02 11:46:25;;;;;;;3.50;3.20;;;14.80;1.00;;;;;;5011569;28;20559;-78
2023/04/02 11:48:53;;;;;;;3.83;3.17;;;14.60;1.00;;;;;;5013737;28;20793;-78
2023/04/02 11:51:22;;;;;;;4.07;3.10;;;14.50;1.00;;;;;;5013447;28;20449;-78
2023/04/02 11:53:52;;;;;;;4.90;3.40;;;14.60;1.00;;;;;;5011842;28;20465;-78
2023/04/02 11:56:39;;;;;;;4.20;3.30;;;14.60;1.00;;;;;;5010963;28;20440;-78
2023/04/02 11:59:05;;;;;;;3.87;3.57;;;14.60;1.00;;;;;;5011564;28;20427;-77
2023/04/02 12:02:07;;;;;;;4.20;3.80;;;14.60;1.00;;;;;;5011935;28;20437;-78
2023/04/02 12:04:55;;;;;;;4.27;3.87;;;14.50;1.00;;;;;;5011396;28;20213;-78
2023/04/02 12:07:50;;;;;;;3.63;3.33;;;14.60;1.00;;;;;;5011750;28;20808;-77
2023/04/02 12:10:22;;;;;;;5.80;3.90;;;14.50;1.00;;;;;;5002689;28;20457;-77
2023/04/02 12:12:48;;;;;;;2.33;2.13;;;14.20;1.00;;;;;;5009893;28;20425;-78
2023/04/02 12:15:43;;;;;;;1.77;1.43;;;14.00;1.00;;;;;;5011367;28;20448;-78
2023/04/02 12:18:19;;;;;;;1.90;1.30;;;13.40;1.00;;;;;;5009904;28;20973;-77
2023/04/02 12:20:51;;;;;;;7.23;1.30;;;12.90;1.00;;;;;;5010931;28;20953;-77
2023/04/02 12:23:19;;;;;;;1.77;1.10;;;12.00;1.00;;;;;;5004134;28;20426;-78
2023/04/02 12:25:57;;;;;;;1.23;1.13;;;12.00;1.00;;;;;;5010051;28;20461;-78
2023/04/02 12:28:23;;;;;;;1.20;1.07;;;11.80;1.00;;;;;;5010014;28;20457;-78
2023/04/02 12:30:50;;;;;;;1.17;1.00;;;11.70;1.00;;;;;;5010513;28;20495;-78
2023/04/02 12:33:19;;;;;;;1.80;1.43;;;11.50;1.00;;;;;;5009970;28;20452;-77
2023/04/02 12:35:46;;;;;;;1.37;1.27;;;11.50;1.00;;;;;;5011274;28;20421;-78
2023/04/02 12:38:29;;;;;;;1.20;1.10;;;11.90;7.90;;;;;;5001002;28;20429;-77
2023/04/02 12:41:17;;;;;;;2.70;1.50;;;11.60;7.40;;;;;;5010766;28;20848;-77
2023/04/02 12:43:43;;;;;;;1.57;1.30;;;11.70;7.40;;;;;;5010859;28;20967;-78
2023/04/02 12:46:12;;;;;;;1.30;1.00;;;11.70;9.80;;;;;;5010453;28;20467;-78
2023/04/02 12:48:38;;;;;;;5.00;1.23;;;11.80;8.20;;;;;;5005999;28;20846;-78
2023/04/02 12:51:04;;;;;;;4.77;1.07;;;11.90;14.80;;;;;;5010335;28;20429;-78
2023/04/02 12:53:36;;;;;;;1.27;1.00;;;11.90;1.80;;;;;;5009571;28;20206;-77
2023/04/02 12:56:02;;;;;;;1.87;1.30;;;11.90;7.50;;;;;;5010305;28;20457;-78
2023/04/02 12:58:43;;;;;;;3.97;1.80;;;11.90;10.50;;;;;;5010586;28;20483;-77
2023/04/02 13:01:17;;;;;;;1.70;1.60;;;11.90;8.10;;;;;;5009977;28;20217;-77
2023/04/02 13:03:43;;;;;;;2.60;1.70;;;12.00;17.40;;;;;;5009324;28;20488;-78
2023/04/02 13:06:22;;;;;;;4.07;1.90;;;12.00;8.50;;;;;;5008871;28;21015;-77
2023/04/02 13:08:48;;;;;;;5.70;3.83;;;12.00;12.80;;;;;;5009991;28;20190;-74
2023/04/02 13:11:14;;;;;;;7.20;5.10;;;12.10;6.10;;;;;;5000761;28;20491;-76
2023/04/02 13:13:42;;;;;;;8.73;6.53;;;12.20;7.30;;;;;;5007642;28;20600;-77
2023/04/02 13:16:13;;;;;;;4.33;3.47;;;12.20;7.20;;;;;;5009923;28;20435;-76
2023/04/02 13:18:40;;;;;;;7.37;4.57;;;12.60;2.70;;;;;;5009720;28;20776;-80
2023/04/02 13:21:22;;;;;;;1.33;1.23;;;12.40;3.20;;;;;;5008617;28;20994;-78
2023/04/02 13:23:48;;;;;;;1.53;1.13;;;12.30;8.50;;;;;;5006079;28;20461;-78
2023/04/02 13:26:20;;;;;;;2.70;1.87;;;12.20;1.00;;;;;;5005540;28;20469;-78
2023/04/02 13:28:56;;;;;;;4.00;2.60;;;12.10;1.00;;;;;;5007463;28;20200;-76
2023/04/02 13:31:22;;;;;;;3.10;2.00;;;12.00;1.00;;;;;;5000084;28;20434;-77
2023/04/02 13:33:47;;;;;;;4.30;3.60;;;12.10;5.10;;;;;;5007499;28;20552;-77
2023/04/02 13:36:14;;;;;;;2.90;2.60;;;12.20;1.00;;;;;;5008550;28;20248;-75
2023/04/02 13:38:40;;;;;;;14.73;2.70;;;12.10;1.00;;;;;;5009335;28;20640;-77
2023/04/02 13:41:17;;;;;;;1.80;1.50;;;12.10;1.00;;;;;;5008504;28;20994;-77
2023/04/02 13:43:43;;;;;;;1.60;1.10;;;12.20;1.00;;;;;;5007503;28;20461;-76
2023/04/02 13:46:21;;;;;;;1.40;1.30;;;12.20;1.00;;;;;;5008417;28;20564;-77
2023/04/02 13:48:48;;;;;;;1.50;1.30;;;12.00;1.00;;;;;;5007995;28;20233;-76
2023/04/02 13:51:20;;;;;;;1.20;1.03;;;12.10;1.00;;;;;;5006105;28;20436;-76
2023/04/02 13:53:56;;;;;;;1.50;1.40;;;12.00;1.00;;;;;;5008401;28;20501;-77
2023/04/02 13:56:23;;;;;;;1.80;1.57;;;12.00;1.00;;;;;;5001869;28;20920;-76
2023/04/02 13:58:50;;;;;;;1.60;1.10;;;11.80;1.00;;;;;;5007047;28;20463;-76
2023/04/02 14:01:17;;;;;;;1.30;1.20;;;11.80;1.00;;;;;;5006481;28;20437;-77
2023/04/02 14:03:44;;;;;;;4.40;1.10;;;11.70;1.00;;;;;;5007052;28;20468;-77
2023/04/02 14:06:33;;;;;;;1.30;1.20;;;11.70;1.00;;;;;;5006336;28;20484;-76
2023/04/02 14:09:24;;;;;;;1.27;1.13;;;11.70;2.80;;;;;;5004052;28;20799;-76
2023/04/02 14:11:59;;;;;;;1.40;1.30;;;11.70;4.60;;;;;;5006052;28;20434;-77